SBYSSBLS

Guest
Details From SBYS - CAMPO FONTENELLE
To SBLS - LAGOA SANTA
Flight Number -
Tags generated
Created
Modified
Stats Distance 243 nm / 450 km
Max Altitude 17,300 ft / 5,273 m
Waypoints 4
Social Downloads 1
Likes 0
Share VATSIM

Download

Looking for another format? Having issues loading an existing format? Contact us
Advertisement - Login to hide

Notes

Basic altitude profile: - Ascent Rate: 1500ft/min - Ascent Speed: 150kts - Cruise Altitude: 13500ft - Cruise Speed: 180kts - Descent Rate: 1000ft/min - Descent Speed: 200kts Options: - Use NATs: no - Use PACOTS: no - Use low airways: yes - Use high airways: no

Route

SBYS PCL W1 MAVIK SBLS

ID Type Via Altitude Latitude Longitude Leg Dist Tot Dist Heading (true) Name
O SBYS APT - 0 ft / 0 m -21.98456˚ -47.33690˚ - 0 nm - CAMPO FONTENELLE
PCL NDB - 15,600 ft / 4,755 m -21.83583˚ -46.56567˚ 43 nm 43 nm 78° / 78° POCOS NDB
MAVIK FIX W1 (AWY-LO) 17,300 ft / 5,273 m -20.52833˚ -45.10650˚ 113 nm 157 nm 46° / 46° -
O SBLS APT - 0 ft / 0 m -19.66161˚ -43.89640˚ 85 nm 243 nm 53° / 52° LAGOA SANTA

Altitude Profile

Advertisement - Login to hide

Weather


0- 5 10 15 20 25 30 35+ Temperature / ° C

Clouds and Precipitation
Forecast for 2017-12-13 12:00 UTC. Updated 10 minutes ago

Ground ~20,000 ft ~40,000 ft Winds

SBYS

Details ICAO SBYS (QPS)
Name CAMPO FONTENELLE
Region Brazil
Timezone America/Sao_Paulo (UTC-2.0)
Stats Elevation 1,968 ft / 600 m (AMSL)
Location -21.984564° -47.336901°
Runways 3
Magnetic Variation 21.274° W

METAR

SBYS 131100Z 22004KT 180V260 CAVOK 22/17 Q1018

Decode

TAF

TAF SBYS 130109Z 1306/1318 14010KT CAVOK TN19/1309Z TX31/1317Z RMK PHM

Decode

Departure Runways

ID Width Length Bearing (true) Bearing (mag) Surface Threshold Offset Overrun Length
02C 148 ft / 45 m 6,949 ft / 2,118 m 359.84° 21.11° Asphalt 0 ft / 0 m 0 ft / 0 m
02L 148 ft / 45 m 6,949 ft / 2,118 m 359.86° 21.13° Asphalt 0 ft / 0 m 0 ft / 0 m
02R 148 ft / 45 m 6,259 ft / 1,908 m 359.65° 20.92° Asphalt 0 ft / 0 m 0 ft / 0 m
20C 148 ft / 45 m 6,949 ft / 2,118 m 179.84° 201.11° Asphalt 0 ft / 0 m 0 ft / 0 m
20L 148 ft / 45 m 6,259 ft / 1,908 m 179.65° 200.92° Asphalt 0 ft / 0 m 0 ft / 0 m
20R 148 ft / 45 m 6,949 ft / 2,118 m 179.86° 201.13° Asphalt 0 ft / 0 m 0 ft / 0 m

SBLS

Details ICAO SBLS
Name LAGOA SANTA
Region Brazil
Timezone America/Sao_Paulo (UTC-2.0)
Stats Elevation 2,795 ft / 852 m (AMSL)
Location -19.661611° -43.896402°
Runways 1
Magnetic Variation 22.825° W

METAR

SBLS 131100Z 13012KT 090V160 9999 SCT030 BKN080 21/15 Q1020

Decode

TAF

Not found

Destination Runways

ID Width Length Bearing (true) Bearing (mag) Surface Threshold Offset Overrun Length
13 98 ft / 30 m 6,031 ft / 1,838 m 105.40° 128.23° Asphalt 0 ft / 0 m 0 ft / 0 m
31 98 ft / 30 m 6,031 ft / 1,838 m 285.40° 308.23° Asphalt 0 ft / 0 m 0 ft / 0 m